createdAt,value
2023-05-08T00:00:59.110Z,23.27
2023-05-08T00:03:44.641Z,22.58
2023-05-08T00:06:30.143Z,16.67
2023-05-08T00:09:15.569Z,19.60
2023-05-08T00:12:01.215Z,18.13
2023-05-08T00:14:46.760Z,18.05
2023-05-08T00:17:33.121Z,24.73
2023-05-08T00:20:19.042Z,21.88
2023-05-08T00:23:04.708Z,18.83
2023-05-08T00:25:50.024Z,20.48
2023-05-08T00:28:35.749Z,17.40
2023-05-08T00:31:21.108Z,20.52
2023-05-08T00:34:06.705Z,19.58
2023-05-08T00:36:52.727Z,17.98
2023-05-08T00:39:38.197Z,24.45
2023-05-08T00:42:23.630Z,17.48
2023-05-08T00:45:09.777Z,17.45
2023-05-08T00:47:55.437Z,18.33
2023-05-08T00:50:41.130Z,18.60
2023-05-08T00:53:27.326Z,18.30
2023-05-08T00:56:15.579Z,19.10
2023-05-08T00:59:01.587Z,17.42
2023-05-08T01:01:48.259Z,18.20
2023-05-08T01:04:36.790Z,19.10
2023-05-08T01:07:22.351Z,21.58
2023-05-08T01:10:08.395Z,19.48
2023-05-08T01:13:11.518Z,18.33
2023-05-08T01:16:17.647Z,19.02
2023-05-08T01:19:35.189Z,23.73
2023-05-08T01:22:20.997Z,19.15
2023-05-08T01:25:32.046Z,20.48
2023-05-08T01:28:31.226Z,21.33
2023-05-08T01:31:16.340Z,15.23
2023-05-08T01:34:23.564Z,20.05
2023-05-08T01:37:16.400Z,17.83
2023-05-08T01:40:31.192Z,15.10
2023-05-08T01:43:25.624Z,18.48
2023-05-08T01:46:16.920Z,19.23
2023-05-08T01:49:10.367Z,20.23
2023-05-08T01:52:18.772Z,17.60
2023-05-08T01:55:10.005Z,21.23
2023-05-08T01:57:57.891Z,18.42
2023-05-08T02:00:45.472Z,21.98
2023-05-08T02:03:36.279Z,23.42
2023-05-08T02:06:23.181Z,20.80
2023-05-08T02:09:10.892Z,19.27
2023-05-08T02:11:57.320Z,19.30
2023-05-08T02:14:43.650Z,18.17
2023-05-08T02:17:31.694Z,17.05
2023-05-08T02:20:18.633Z,15.48
2023-05-08T02:23:04.639Z,15.45
2023-05-08T02:25:51.563Z,17.13
2023-05-08T02:28:38.044Z,15.85
2023-05-08T02:31:24.524Z,15.95
2023-05-08T02:34:11.804Z,18.00
2023-05-08T02:36:59.730Z,14.95
2023-05-08T02:39:47.052Z,18.10
2023-05-08T02:42:33.259Z,19.63
2023-05-08T02:45:19.279Z,16.23
2023-05-08T02:48:11.029Z,20.95
2023-05-08T02:51:16.529Z,24.35
2023-05-08T02:54:18.023Z,15.80
2023-05-08T02:57:17.592Z,17.73
2023-05-08T03:00:20.733Z,15.82
2023-05-08T03:03:42.159Z,17.73
2023-05-08T03:06:33.946Z,20.58
2023-05-08T03:09:23.075Z,18.02
2023-05-08T03:12:14.310Z,21.20
2023-05-08T03:15:16.298Z,17.75
2023-05-08T03:18:10.572Z,16.73
2023-05-08T03:20:59.338Z,19.98
2023-05-08T03:23:46.792Z,20.42
2023-05-08T03:26:32.361Z,26.92
2023-05-08T03:29:19.696Z,26.48
2023-05-08T03:32:06.075Z,22.40
2023-05-08T03:34:52.398Z,27.38
2023-05-08T03:37:38.223Z,22.77
2023-05-08T03:40:23.490Z,20.92
2023-05-08T03:43:09.611Z,22.75
2023-05-08T03:45:56.617Z,27.50
2023-05-08T03:48:43.411Z,25.40
2023-05-08T03:51:29.295Z,27.80
2023-05-08T03:54:14.556Z,16.88
2023-05-08T03:57:00.157Z,19.63
2023-05-08T04:00:19.579Z,25.05
2023-05-08T04:03:17.257Z,21.50
2023-05-08T04:06:11.654Z,23.80
2023-05-08T04:09:31.927Z,21.00
2023-05-08T04:12:52.900Z,21.92
2023-05-08T04:16:20.117Z,24.10
2023-05-08T04:19:11.684Z,20.88
2023-05-08T04:22:05.146Z,27.30
2023-05-08T04:24:51.502Z,22.73
2023-05-08T04:27:37.924Z,19.45
2023-05-08T04:30:23.896Z,18.92
2023-05-08T04:33:09.905Z,23.95
2023-05-08T04:35:56.617Z,18.50
2023-05-08T04:38:42.291Z,17.83
2023-05-08T04:41:27.720Z,19.15
2023-05-08T04:44:13.505Z,15.45
2023-05-08T04:46:59.095Z,20.77
2023-05-08T04:49:44.960Z,19.75
2023-05-08T04:52:30.156Z,20.50
2023-05-08T04:55:15.933Z,22.83
2023-05-08T04:58:01.643Z,14.48
2023-05-08T05:00:47.083Z,20.02
2023-05-08T05:03:32.717Z,19.40
2023-05-08T05:06:18.033Z,17.60
2023-05-08T05:09:04.824Z,14.15
2023-05-08T05:11:50.329Z,14.68
2023-05-08T05:14:36.216Z,13.10
2023-05-08T05:17:22.009Z,16.77
2023-05-08T05:20:08.934Z,12.93
2023-05-08T05:22:54.432Z,12.05
2023-05-08T05:25:39.842Z,19.48
2023-05-08T05:28:26.184Z,14.52
2023-05-08T05:31:11.599Z,14.27
2023-05-08T05:33:57.397Z,15.75
2023-05-08T05:36:44.162Z,14.18
2023-05-08T05:39:45.311Z,17.73
2023-05-08T05:42:42.457Z,21.10
2023-05-08T05:46:20.167Z,15.80
2023-05-08T05:49:13.522Z,17.80
2023-05-08T05:51:59.918Z,19.20
2023-05-08T05:55:01.205Z,16.05
2023-05-08T05:57:54.738Z,15.65
2023-05-08T06:03:53.795Z,14.98
2023-05-08T06:07:04.212Z,18.83
2023-05-08T06:10:08.287Z,15.73
2023-05-08T06:13:07.299Z,14.90
2023-05-08T06:15:58.507Z,12.30
2023-05-08T06:18:43.680Z,14.52
2023-05-08T06:21:29.227Z,14.40
2023-05-08T06:24:14.655Z,14.82
2023-05-08T06:27:00.279Z,15.23
2023-05-08T06:29:59.256Z,15.13
2023-05-08T06:32:45.543Z,13.05
2023-05-08T06:35:32.510Z,13.73
2023-05-08T06:38:19.049Z,12.63
2023-05-08T06:41:15.165Z,11.88
2023-05-08T06:44:12.673Z,9.05
2023-05-08T06:47:24.318Z,10.35
2023-05-08T06:50:10.976Z,11.35
2023-05-08T06:53:13.874Z,10.15
2023-05-08T06:56:05.942Z,10.70
2023-05-08T06:59:07.185Z,8.25
2023-05-08T07:02:10.888Z,10.63
2023-05-08T07:05:01.626Z,12.18
2023-05-08T07:07:47.409Z,11.20
2023-05-08T07:10:32.928Z,9.65
2023-05-08T07:13:27.371Z,9.73
2023-05-08T07:16:14.201Z,10.55
2023-05-08T07:18:59.692Z,13.93
2023-05-08T07:21:46.407Z,10.60
2023-05-08T07:24:32.382Z,11.32
2023-05-08T07:27:18.055Z,11.35
2023-05-08T07:30:04.442Z,12.18
2023-05-08T07:32:50.024Z,12.02
2023-05-08T07:35:35.537Z,8.60
2023-05-08T07:38:20.982Z,9.57
2023-05-08T07:41:07.406Z,10.25
2023-05-08T07:43:53.378Z,9.25
2023-05-08T07:46:39.197Z,7.35
2023-05-08T07:49:24.805Z,8.93
2023-05-08T07:52:10.753Z,9.43
2023-05-08T07:54:56.344Z,10.23
2023-05-08T07:57:43.388Z,10.68
2023-05-08T08:00:29.654Z,9.45
2023-05-08T08:03:15.401Z,9.43
2023-05-08T08:06:00.761Z,9.65
2023-05-08T08:08:46.422Z,11.20
2023-05-08T08:11:31.969Z,11.55
2023-05-08T08:14:17.176Z,10.15
2023-05-08T08:17:02.906Z,10.90
2023-05-08T08:19:48.734Z,10.45
2023-05-08T08:22:33.920Z,12.65
2023-05-08T08:25:19.505Z,10.63
2023-05-08T08:28:05.107Z,9.68
2023-05-08T08:30:51.173Z,9.95
2023-05-08T08:33:36.806Z,11.10
2023-05-08T08:36:22.290Z,10.07
2023-05-08T08:39:10.425Z,12.27
2023-05-08T08:41:56.853Z,12.65
2023-05-08T08:44:42.813Z,10.05
2023-05-08T08:47:29.740Z,11.25
2023-05-08T08:50:16.158Z,12.38
2023-05-08T08:53:12.445Z,9.60
2023-05-08T08:56:00.928Z,9.30
2023-05-08T08:58:56.993Z,9.52
2023-05-08T09:01:44.869Z,12.23
2023-05-08T09:04:31.839Z,9.68
2023-05-08T09:07:18.522Z,8.27
2023-05-08T09:10:07.431Z,8.43
2023-05-08T09:12:53.330Z,8.90
2023-05-08T09:15:39.071Z,9.80
2023-05-08T09:18:24.933Z,8.25
2023-05-08T09:21:10.338Z,10.75
2023-05-08T09:24:01.184Z,6.57
2023-05-08T09:26:48.127Z,7.97
2023-05-08T09:29:33.455Z,8.85
2023-05-08T09:32:19.074Z,4.10
2023-05-08T09:35:05.948Z,9.63
2023-05-08T09:37:51.689Z,8.60
2023-05-08T09:40:37.109Z,6.45
2023-05-08T09:43:22.566Z,9.48
2023-05-08T09:46:24.436Z,7.00
2023-05-08T09:49:18.194Z,8.85
2023-05-08T09:52:04.210Z,9.82
2023-05-08T09:54:59.847Z,8.40
2023-05-08T09:57:57.250Z,8.15
2023-05-08T10:00:43.483Z,9.93
2023-05-08T10:03:49.571Z,8.18
2023-05-08T10:06:36.585Z,6.60
2023-05-08T10:09:22.210Z,4.05
2023-05-08T10:12:09.128Z,4.65
2023-05-08T10:14:55.256Z,10.38
2023-05-08T10:18:08.998Z,8.82
2023-05-08T10:20:57.872Z,10.77
2023-05-08T10:23:45.672Z,11.25
2023-05-08T10:26:32.028Z,5.32
2023-05-08T10:29:21.407Z,5.25
2023-05-08T10:32:10.558Z,9.13
2023-05-08T10:35:00.593Z,8.90
2023-05-08T10:37:47.844Z,12.02
2023-05-08T10:40:33.540Z,7.57
2023-05-08T10:43:19.879Z,7.32
2023-05-08T10:46:28.751Z,8.60
2023-05-08T10:49:28.739Z,8.82
2023-05-08T10:52:17.890Z,6.35
2023-05-08T10:55:17.151Z,7.93
2023-05-08T10:58:17.467Z,9.82
2023-05-08T11:01:09.220Z,7.53
2023-05-08T11:03:58.400Z,9.80
2023-05-08T11:06:46.663Z,6.50
2023-05-08T11:09:41.436Z,8.48
2023-05-08T11:12:29.543Z,9.10
2023-05-08T11:15:15.320Z,4.72
2023-05-08T11:18:09.076Z,5.25
2023-05-08T11:20:57.404Z,7.32
2023-05-08T11:23:42.676Z,8.38
2023-05-08T11:26:40.931Z,10.77
2023-05-08T11:29:26.364Z,4.95
2023-05-08T11:32:12.077Z,6.65
2023-05-08T11:34:58.232Z,5.78
2023-05-08T11:38:19.286Z,5.10
2023-05-08T11:41:09.995Z,8.30
2023-05-08T11:44:14.938Z,7.93
2023-05-08T11:47:04.551Z,4.82
2023-05-08T11:49:50.596Z,11.27
2023-05-08T11:52:38.451Z,7.18
2023-05-08T11:55:23.904Z,5.53
2023-05-08T11:58:15.030Z,6.18
2023-05-08T12:01:01.794Z,5.95
2023-05-08T12:03:48.236Z,4.57
2023-05-08T12:06:35.833Z,4.75
2023-05-08T12:09:23.912Z,8.50
2023-05-08T12:12:09.783Z,4.85
2023-05-08T12:14:56.026Z,4.38
2023-05-08T12:17:43.787Z,3.60
2023-05-08T12:20:31.957Z,4.35
2023-05-08T12:23:22.763Z,5.28
2023-05-08T12:26:41.794Z,4.50
2023-05-08T12:29:31.925Z,4.10
2023-05-08T12:32:21.004Z,2.38
2023-05-08T12:35:11.344Z,5.43
2023-05-08T12:38:05.766Z,2.13
2023-05-08T12:40:55.600Z,6.40
2023-05-08T12:43:40.821Z,3.50
2023-05-08T12:46:27.392Z,3.83
2023-05-08T12:49:12.978Z,3.30
2023-05-08T12:52:09.408Z,2.70
2023-05-08T12:54:55.277Z,4.85
2023-05-08T12:57:40.979Z,4.10
2023-05-08T13:00:33.884Z,4.13
2023-05-08T13:03:28.773Z,3.17
2023-05-08T13:06:23.932Z,4.28
2023-05-08T13:09:09.585Z,5.35
2023-05-08T13:11:54.967Z,4.53
2023-05-08T13:14:40.682Z,6.50
2023-05-08T13:17:26.811Z,4.80
2023-05-08T13:20:12.320Z,6.38
2023-05-08T13:22:57.935Z,5.05
2023-05-08T13:25:43.928Z,2.35
2023-05-08T13:28:29.220Z,1.70
2023-05-08T13:31:14.773Z,2.35
2023-05-08T13:34:00.639Z,2.13
2023-05-08T13:36:46.485Z,1.77
2023-05-08T13:39:32.896Z,3.35
2023-05-08T13:42:18.476Z,3.92
2023-05-08T13:45:10.674Z,2.70
2023-05-08T13:47:56.605Z,3.75
2023-05-08T13:50:42.389Z,5.05
2023-05-08T13:53:28.390Z,3.78
2023-05-08T13:56:15.879Z,3.80
2023-05-08T13:59:01.406Z,4.20
2023-05-08T14:01:46.943Z,4.30
2023-05-08T14:04:32.946Z,3.80
2023-05-08T14:07:18.975Z,1.95
2023-05-08T14:10:04.777Z,2.47
2023-05-08T14:12:50.408Z,2.35
2023-05-08T14:15:37.818Z,1.38
2023-05-08T14:18:24.595Z,4.32
2023-05-08T14:21:10.243Z,2.67
2023-05-08T14:23:55.874Z,2.80
2023-05-08T14:26:42.432Z,1.65
2023-05-08T14:29:27.906Z,2.72
2023-05-08T14:32:13.623Z,1.80
2023-05-08T14:34:59.437Z,2.72
2023-05-08T14:37:45.278Z,6.68
2023-05-08T14:40:31.308Z,2.45
2023-05-08T14:43:17.793Z,3.63
2023-05-08T14:46:03.603Z,2.83
2023-05-08T14:48:49.479Z,1.95
2023-05-08T14:51:35.088Z,2.17
2023-05-08T14:54:20.883Z,2.33
2023-05-08T14:57:06.507Z,5.35
2023-05-08T15:02:57.764Z,3.15
2023-05-08T15:05:43.756Z,3.47
2023-05-08T15:08:29.428Z,4.57
2023-05-08T15:11:14.933Z,2.63
2023-05-08T15:14:01.793Z,5.80
2023-05-08T15:16:47.472Z,4.78
2023-05-08T15:19:33.166Z,3.17
2023-05-08T15:22:18.789Z,3.95
2023-05-08T15:25:05.625Z,2.28
2023-05-08T15:27:52.840Z,2.95
2023-05-08T15:30:38.950Z,4.22
2023-05-08T15:33:24.773Z,3.58
2023-05-08T15:36:14.075Z,3.10
2023-05-08T15:39:00.122Z,4.53
2023-05-08T15:41:45.515Z,3.38
2023-05-08T15:44:52.609Z,8.68
2023-05-08T15:47:38.624Z,4.47
2023-05-08T15:50:24.436Z,9.55
2023-05-08T15:53:09.944Z,3.70
2023-05-08T15:55:57.283Z,5.38
2023-05-08T15:58:42.942Z,5.07
2023-05-08T16:01:28.881Z,9.07
2023-05-08T16:04:16.872Z,5.30
2023-05-08T16:07:02.787Z,5.35
2023-05-08T16:09:48.087Z,9.25
2023-05-08T16:12:37.563Z,5.70
2023-05-08T16:15:23.210Z,7.85
2023-05-08T16:18:08.696Z,7.13
2023-05-08T16:20:54.468Z,5.80
2023-05-08T16:23:39.735Z,6.68
2023-05-08T16:26:26.376Z,6.55
2023-05-08T16:29:11.938Z,7.72
2023-05-08T16:31:57.642Z,4.60
2023-05-08T16:34:43.716Z,8.38
2023-05-08T16:38:14.816Z,9.52
2023-05-08T16:41:36.843Z,7.88
2023-05-08T16:44:22.550Z,8.48
2023-05-08T16:47:08.216Z,11.35
2023-05-08T16:49:54.366Z,8.68
2023-05-08T16:52:44.342Z,7.53
2023-05-08T16:55:47.144Z,6.57
2023-05-08T16:58:34.889Z,6.30
2023-05-08T17:01:32.350Z,6.10
2023-05-08T17:04:18.327Z,6.80
2023-05-08T17:07:06.049Z,5.72
2023-05-08T17:10:19.035Z,5.57
2023-05-08T17:13:04.808Z,3.53
2023-05-08T17:15:50.319Z,6.28
2023-05-08T17:18:36.055Z,3.85
2023-05-08T17:21:22.560Z,7.43
2023-05-08T17:24:23.465Z,4.18
2023-05-08T17:27:17.602Z,4.85
2023-05-08T17:30:04.166Z,4.55
2023-05-08T17:32:51.804Z,6.80
2023-05-08T17:35:41.391Z,3.85
2023-05-08T17:38:27.290Z,6.28
2023-05-08T17:41:23.934Z,5.43
2023-05-08T17:44:13.363Z,5.53
2023-05-08T17:46:59.045Z,6.03
2023-05-08T17:49:44.598Z,14.07
2023-05-08T17:52:30.297Z,13.77
2023-05-08T17:55:15.567Z,8.15
2023-05-08T17:58:01.358Z,5.43
2023-05-08T18:00:46.964Z,6.25
2023-05-08T18:03:32.493Z,4.10
2023-05-08T18:06:18.548Z,8.57
2023-05-08T18:09:04.149Z,4.47
2023-05-08T18:11:49.520Z,9.85
2023-05-08T18:14:35.098Z,5.85
2023-05-08T18:17:22.447Z,4.32
2023-05-08T18:20:09.370Z,4.95
2023-05-08T18:22:54.912Z,3.70
2023-05-08T18:25:40.556Z,3.17
2023-05-08T18:28:26.794Z,2.90
2023-05-08T18:31:13.463Z,2.63
2023-05-08T18:33:59.415Z,4.63
2023-05-08T18:36:44.838Z,3.10
2023-05-08T18:39:30.589Z,3.67
2023-05-08T18:42:16.188Z,4.25
2023-05-08T18:45:05.654Z,5.03
2023-05-08T18:47:54.117Z,5.63
2023-05-08T18:50:39.645Z,7.75
2023-05-08T18:53:25.230Z,2.40
2023-05-08T18:56:12.439Z,4.97
2023-05-08T18:59:00.099Z,3.00
2023-05-08T19:01:45.418Z,3.63
2023-05-08T19:04:31.125Z,2.65
2023-05-08T19:07:16.821Z,2.38
2023-05-08T19:10:02.169Z,2.58
2023-05-08T19:12:47.954Z,3.03
2023-05-08T19:15:33.518Z,4.10
2023-05-08T19:18:20.234Z,3.92
2023-05-08T19:21:06.576Z,4.13
2023-05-08T19:23:52.239Z,3.80
2023-05-08T19:26:43.636Z,3.10
2023-05-08T19:29:29.536Z,2.35
2023-05-08T19:32:15.340Z,3.55
2023-05-08T19:35:02.593Z,2.63
2023-05-08T19:37:48.368Z,1.50
2023-05-08T19:40:41.327Z,1.88
2023-05-08T19:46:23.045Z,1.70
2023-05-08T19:49:08.781Z,1.65
2023-05-08T19:51:54.345Z,1.98
2023-05-08T19:54:40.344Z,1.92
2023-05-08T19:57:25.516Z,3.33
2023-05-08T20:00:11.895Z,2.35
2023-05-08T20:02:57.895Z,3.03
2023-05-08T20:05:43.839Z,2.45
2023-05-08T20:08:30.072Z,3.65
2023-05-08T20:11:15.800Z,3.92
2023-05-08T20:14:01.866Z,3.50
2023-05-08T20:16:47.472Z,4.25
2023-05-08T20:19:33.226Z,3.78
2023-05-08T20:22:18.844Z,4.95
2023-05-08T20:25:05.150Z,3.65
2023-05-08T20:27:52.091Z,5.70
2023-05-08T20:30:37.836Z,6.60
2023-05-08T20:33:23.270Z,5.38
2023-05-08T20:36:09.130Z,7.93
2023-05-08T20:38:54.588Z,7.30
2023-05-08T20:41:40.211Z,9.25
2023-05-08T20:44:25.777Z,7.28
2023-05-08T20:47:11.506Z,8.27
2023-05-08T20:49:57.121Z,9.73
2023-05-08T20:52:42.817Z,8.90
2023-05-08T20:55:28.354Z,10.63
2023-05-08T20:58:13.745Z,11.70
2023-05-08T21:00:59.218Z,9.35
2023-05-08T21:03:44.769Z,13.95
2023-05-08T21:06:30.880Z,13.50
2023-05-08T21:09:16.795Z,9.38
2023-05-08T21:12:02.774Z,11.07
2023-05-08T21:14:48.712Z,11.05
2023-05-08T21:17:34.703Z,11.63
2023-05-08T21:20:21.414Z,12.52
2023-05-08T21:23:07.392Z,12.07
2023-05-08T21:25:53.344Z,13.98
2023-05-08T21:28:39.108Z,15.35
2023-05-08T21:31:24.810Z,19.70
2023-05-08T21:34:10.675Z,17.63
2023-05-08T21:36:56.129Z,16.25
2023-05-08T21:39:41.920Z,16.27
2023-05-08T21:42:27.066Z,14.98
2023-05-08T21:45:12.887Z,17.63
2023-05-08T21:47:59.774Z,15.43
2023-05-08T21:50:45.266Z,15.75
2023-05-08T21:53:30.721Z,18.98
2023-05-08T21:56:16.582Z,15.02
2023-05-08T21:59:02.159Z,14.95
2023-05-08T22:01:47.846Z,16.17
2023-05-08T22:04:33.280Z,15.15
2023-05-08T22:07:21.070Z,15.57
2023-05-08T22:10:09.178Z,15.98
2023-05-08T22:12:54.502Z,16.30
2023-05-08T22:15:40.166Z,17.38
2023-05-08T22:18:25.934Z,16.65
2023-05-08T22:21:11.507Z,18.08
2023-05-08T22:23:57.260Z,13.93
2023-05-08T22:26:42.752Z,16.85
2023-05-08T22:29:28.236Z,18.50
2023-05-08T22:32:14.275Z,14.27
2023-05-08T22:35:00.026Z,13.07
2023-05-08T22:37:45.680Z,15.00
2023-05-08T22:40:31.067Z,13.40
2023-05-08T22:43:16.565Z,14.98
2023-05-08T22:46:02.857Z,10.73
2023-05-08T22:48:48.386Z,9.95
2023-05-08T22:51:33.588Z,8.73
2023-05-08T22:54:19.166Z,10.73
2023-05-08T22:57:04.801Z,7.32
2023-05-08T22:59:50.427Z,7.88
2023-05-08T23:02:35.954Z,8.20
2023-05-08T23:05:21.956Z,6.90
2023-05-08T23:08:07.567Z,5.93
2023-05-08T23:10:52.980Z,7.05
2023-05-08T23:13:38.219Z,5.32
2023-05-08T23:16:24.962Z,5.43
2023-05-08T23:19:10.593Z,4.38
2023-05-08T23:21:55.788Z,4.68
2023-05-08T23:24:41.284Z,5.53
2023-05-08T23:27:27.003Z,2.70
2023-05-08T23:30:16.922Z,3.25
2023-05-08T23:33:02.486Z,2.83
2023-05-08T23:35:48.200Z,2.90
2023-05-08T23:38:33.608Z,3.08
2023-05-08T23:41:19.086Z,2.38
2023-05-08T23:44:05.063Z,4.47
2023-05-08T23:46:50.483Z,2.78
2023-05-08T23:49:36.019Z,2.13
2023-05-08T23:52:21.273Z,1.00
2023-05-08T23:55:07.615Z,3.15
2023-05-08T23:57:52.980Z,1.80
